Time;durP1;ratioP1;P1;durP2;ratioP2;P2;SDS_P1;SDS_P2;PMS_P1;PMS_P2;Temp;Humidity;BMP_temperature;BMP_pressure;BME280_temperature;BME280_humidity;BME280_pressure;Samples;Min_cycle;Max_cycle;Signal;HPM_P1;HPM_P2
2022/03/23 00:01:14;;;;;;;2.28;1.30;;;22.40;63.60;;;;;;4972353;28;20225;-55
2022/03/23 00:03:45;;;;;;;1.38;1.20;;;22.50;63.60;;;;;;4972084;28;20222;-55
2022/03/23 00:06:17;;;;;;;2.05;1.33;;;22.50;63.50;;;;;;4972368;28;20361;-57
2022/03/23 00:08:50;;;;;;;1.17;1.08;;;22.50;63.30;;;;;;4970782;28;20670;-54
2022/03/23 00:11:21;;;;;;;2.22;1.40;;;22.60;63.20;;;;;;4972761;28;20194;-57
2022/03/23 00:13:51;;;;;;;2.28;1.60;;;22.60;63.20;;;;;;4970987;28;20198;-58
2022/03/23 00:16:22;;;;;;;1.50;1.40;;;22.60;63.10;;;;;;4971654;28;20864;-58
2022/03/23 00:18:53;;;;;;;2.65;1.60;;;22.60;63.00;;;;;;4972309;28;20202;-58
2022/03/23 00:24:07;;;;;;;2.15;1.60;;;22.60;63.00;;;;;;4969850;28;20230;-60
2022/03/23 00:26:38;;;;;;;2.60;1.60;;;22.70;63.00;;;;;;4971784;28;20226;-60
2022/03/23 00:29:09;;;;;;;2.28;1.60;;;22.70;63.00;;;;;;4971275;28;20194;-60
2022/03/23 00:31:39;;;;;;;5.18;1.80;;;22.70;63.00;;;;;;4971247;28;20249;-59
2022/03/23 00:34:10;;;;;;;2.50;1.65;;;22.70;63.00;;;;;;4971920;28;20194;-60
2022/03/23 00:36:40;;;;;;;1.70;1.60;;;22.70;62.90;;;;;;4971167;28;20221;-59
2022/03/23 00:39:13;;;;;;;1.70;1.55;;;22.80;63.00;;;;;;4969040;28;20233;-60
2022/03/23 00:41:49;;;;;;;3.33;1.85;;;22.80;63.00;;;;;;4971716;28;20198;-59
2022/03/23 00:44:19;;;;;;;2.65;1.48;;;22.80;63.00;;;;;;4971392;28;20313;-59
2022/03/23 00:46:50;;;;;;;2.75;1.90;;;22.80;63.00;;;;;;4970535;28;20222;-59
2022/03/23 00:49:21;;;;;;;4.10;1.75;;;22.80;62.90;;;;;;4971308;28;20208;-59
2022/03/23 00:51:53;;;;;;;1.95;1.77;;;22.80;63.00;;;;;;4971178;28;20202;-60
2022/03/23 00:54:26;;;;;;;1.83;1.67;;;22.80;62.90;;;;;;4970644;28;20884;-59
2022/03/23 00:56:56;;;;;;;2.83;1.90;;;22.90;62.90;;;;;;4971345;28;20218;-60
2022/03/23 00:59:27;;;;;;;1.70;1.60;;;22.90;62.90;;;;;;4967406;28;20202;-60
2022/03/23 01:01:58;;;;;;;1.70;1.60;;;22.90;62.80;;;;;;4970743;28;20701;-60
2022/03/23 01:04:29;;;;;;;1.70;1.60;;;22.90;62.80;;;;;;4970981;28;20237;-60
2022/03/23 01:07:00;;;;;;;2.25;1.77;;;22.90;62.80;;;;;;4971215;28;20293;-60
2022/03/23 01:09:32;;;;;;;2.20;2.00;;;23.00;62.90;;;;;;4968965;28;20194;-60
2022/03/23 01:12:03;;;;;;;3.20;2.10;;;23.00;62.90;;;;;;4970497;28;20249;-59
2022/03/23 01:14:33;;;;;;;1.85;1.75;;;23.00;62.90;;;;;;4971012;28;20198;-60
2022/03/23 01:17:04;;;;;;;4.55;1.88;;;23.00;62.90;;;;;;4970752;28;20339;-59
2022/03/23 01:19:34;;;;;;;2.55;2.03;;;23.00;62.90;;;;;;4971316;28;20198;-57
2022/03/23 01:22:06;;;;;;;2.67;1.90;;;23.00;62.90;;;;;;4985754;22;20229;-52
2022/03/23 01:24:38;;;;;;;2.17;2.00;;;23.00;63.00;;;;;;4990314;28;21502;-58
2022/03/23 01:27:09;;;;;;;2.28;2.08;;;23.10;63.10;;;;;;4989413;28;20787;-58
2022/03/23 01:29:40;;;;;;;2.10;1.88;;;23.10;63.00;;;;;;4988489;28;20217;-58
2022/03/23 01:32:11;;;;;;;4.20;2.03;;;23.10;62.90;;;;;;4990164;28;20613;-57
2022/03/23 01:34:41;;;;;;;2.55;2.03;;;23.10;62.90;;;;;;4989651;28;20197;-59
2022/03/23 01:37:12;;;;;;;2.88;2.10;;;23.10;63.00;;;;;;4990018;28;20213;-59
2022/03/23 01:39:44;;;;;;;2.10;1.90;;;23.10;62.90;;;;;;4988919;28;20192;-59
2022/03/23 01:42:15;;;;;;;2.20;2.00;;;23.20;63.00;;;;;;4990308;28;20201;-58
2022/03/23 01:44:45;;;;;;;3.00;2.10;;;23.20;63.00;;;;;;4990025;28;20225;-59
2022/03/23 01:47:17;;;;;;;2.35;1.80;;;23.20;62.90;;;;;;4989665;28;20260;-59
2022/03/23 01:49:49;;;;;;;3.13;2.10;;;23.30;62.90;;;;;;4989643;28;20256;-58
2022/03/23 01:52:23;;;;;;;3.53;2.28;;;23.30;62.90;;;;;;4989338;28;20607;-58
2022/03/23 01:54:55;;;;;;;2.30;2.10;;;23.30;62.90;;;;;;4989650;28;20201;-59
2022/03/23 01:57:26;;;;;;;2.08;1.90;;;23.40;63.00;;;;;;4990056;28;20296;-58
2022/03/23 01:59:57;;;;;;;2.10;1.90;;;23.30;62.90;;;;;;4989179;28;20560;-56
2022/03/23 02:02:28;;;;;;;2.20;1.92;;;23.40;63.00;;;;;;4989993;28;20193;-58
2022/03/23 02:04:58;;;;;;;2.28;1.88;;;23.40;63.00;;;;;;4989608;28;20623;-58
2022/03/23 02:07:30;;;;;;;2.20;2.00;;;23.40;62.90;;;;;;4989510;28;20214;-58
2022/03/23 02:10:02;;;;;;;2.10;1.90;;;23.40;62.90;;;;;;4989000;28;20280;-58
2022/03/23 02:12:33;;;;;;;2.00;1.80;;;23.40;62.90;;;;;;4989422;28;20193;-59
2022/03/23 02:15:12;;;;;;;2.05;1.73;;;23.50;63.00;;;;;;4989517;28;20279;-51
2022/03/23 02:17:44;;;;;;;2.00;1.80;;;23.50;63.00;;;;;;4988493;28;20786;-56
2022/03/23 02:20:15;;;;;;;2.22;1.88;;;23.50;62.90;;;;;;4989836;28;20300;-58
2022/03/23 02:22:48;;;;;;;2.35;2.00;;;23.60;63.10;;;;;;5001670;23;20382;-60
2022/03/23 02:25:23;;;;;;;2.13;1.92;;;23.60;62.70;;;;;;4989066;28;20217;-60
2022/03/23 02:27:55;;;;;;;2.20;2.00;;;23.60;62.60;;;;;;4989397;28;20229;-59
2022/03/23 02:30:26;;;;;;;1.83;1.73;;;23.60;62.60;;;;;;4989412;28;20209;-57
2022/03/23 02:32:56;;;;;;;1.77;1.67;;;23.60;62.50;;;;;;4988478;28;20205;-57
2022/03/23 02:35:27;;;;;;;2.25;2.05;;;23.70;62.50;;;;;;4989354;28;20284;-57
2022/03/23 02:37:59;;;;;;;2.30;1.92;;;23.70;62.50;;;;;;4988329;28;20224;-57
2022/03/23 02:40:30;;;;;;;2.65;2.00;;;23.70;62.40;;;;;;4973258;28;20194;-57
2022/03/23 02:43:01;;;;;;;3.35;1.80;;;23.70;62.30;;;;;;4989478;28;20197;-57
2022/03/23 02:45:31;;;;;;;1.85;1.75;;;23.70;62.20;;;;;;4988617;28;20229;-57
2022/03/23 02:48:03;;;;;;;2.58;2.03;;;23.70;62.20;;;;;;4989783;28;20286;-57
2022/03/23 02:50:34;;;;;;;2.03;1.83;;;23.70;62.20;;;;;;4989563;28;20676;-57
2022/03/23 03:04:20;;;;;;;2.20;1.98;;;23.80;62.10;;;;;;4986152;28;20288;-60
2022/03/23 03:06:50;;;;;;;3.92;2.30;;;23.80;62.00;;;;;;4988383;28;20276;-60
2022/03/23 03:09:23;;;;;;;2.03;1.83;;;23.80;62.00;;;;;;4989019;28;20202;-59
2022/03/23 03:11:53;;;;;;;3.60;2.50;;;23.80;61.90;;;;;;4989218;28;20194;-59
2022/03/23 03:14:24;;;;;;;2.08;1.98;;;23.80;62.00;;;;;;4986093;28;20248;-59
2022/03/23 03:16:54;;;;;;;2.35;2.13;;;23.80;62.10;;;;;;4988580;28;20213;-59
2022/03/23 03:19:25;;;;;;;3.00;2.00;;;23.80;62.10;;;;;;4988572;28;20268;-60
2022/03/23 03:21:57;;;;;;;3.22;2.28;;;23.80;62.00;;;;;;5001321;22;20218;-60
2022/03/23 03:24:29;;;;;;;2.38;2.17;;;23.90;62.00;;;;;;4966793;28;20266;-57
2022/03/23 03:27:00;;;;;;;2.17;1.95;;;23.90;62.00;;;;;;4969586;28;20261;-60
2022/03/23 03:29:31;;;;;;;2.83;2.20;;;23.90;62.00;;;;;;4969434;28;20253;-57
2022/03/23 03:32:01;;;;;;;3.30;2.15;;;23.90;61.90;;;;;;4969430;28;20250;-60
2022/03/23 03:34:32;;;;;;;3.60;1.95;;;23.90;61.90;;;;;;4969078;28;20195;-60
2022/03/23 03:37:02;;;;;;;3.65;2.38;;;24.00;61.90;;;;;;4969058;28;20273;-61
2022/03/23 03:39:35;;;;;;;3.88;2.60;;;24.00;61.90;;;;;;4968999;28;20191;-59
2022/03/23 03:42:06;;;;;;;3.40;2.58;;;24.00;61.80;;;;;;4969581;28;20194;-59
2022/03/23 03:44:37;;;;;;;4.40;2.22;;;24.00;61.80;;;;;;4971700;28;20195;-59
2022/03/23 03:47:10;;;;;;;3.72;2.15;;;24.00;61.70;;;;;;4971689;28;20288;-60
2022/03/23 03:49:41;;;;;;;4.95;2.28;;;24.00;61.70;;;;;;4973327;28;20257;-58
2022/03/23 03:52:11;;;;;;;6.50;2.40;;;24.00;61.70;;;;;;4973213;28;20198;-58
2022/03/23 03:54:44;;;;;;;4.40;2.50;;;24.00;62.40;;;;;;4972387;28;20198;-60
2022/03/23 03:57:14;;;;;;;4.88;2.65;;;24.00;61.50;;;;;;4972417;28;20277;-59
2022/03/23 03:59:45;;;;;;;3.85;2.38;;;24.00;61.50;;;;;;4966662;28;20207;-59
2022/03/23 04:02:16;;;;;;;2.28;2.03;;;24.00;61.50;;;;;;4953078;28;20194;-59
2022/03/23 04:04:46;;;;;;;3.42;2.17;;;24.00;61.50;;;;;;4952523;28;20270;-59
2022/03/23 04:07:17;;;;;;;3.10;2.03;;;24.00;61.50;;;;;;4954109;28;20748;-59
2022/03/23 04:09:49;;;;;;;3.83;2.33;;;24.00;61.40;;;;;;4954224;28;20203;-59
2022/03/23 04:12:20;;;;;;;5.05;2.40;;;24.00;61.30;;;;;;4954572;28;20203;-59
2022/03/23 04:14:51;;;;;;;2.10;1.90;;;24.00;61.30;;;;;;4954037;28;20195;-59
2022/03/23 04:17:21;;;;;;;3.05;2.25;;;24.00;62.10;;;;;;4972193;28;20305;-60
2022/03/23 04:19:52;;;;;;;3.45;2.10;;;24.00;61.20;;;;;;4972726;28;20190;-59
2022/03/23 04:22:23;;;;;;;2.75;2.10;;;24.00;61.20;;;;;;4989257;23;20291;-58
2022/03/23 04:24:56;;;;;;;2.50;2.30;;;24.00;61.20;;;;;;4991650;28;20376;-58
2022/03/23 04:27:26;;;;;;;3.13;2.40;;;24.00;61.90;;;;;;4991537;28;20217;-58
2022/03/23 04:29:57;;;;;;;2.20;2.00;;;24.00;61.10;;;;;;4990883;28;20189;-59
2022/03/23 04:32:27;;;;;;;2.40;2.20;;;24.10;61.00;;;;;;4991414;28;20202;-56
2022/03/23 04:34:58;;;;;;;3.22;2.15;;;24.10;61.00;;;;;;4984755;28;20198;-57
2022/03/23 04:37:28;;;;;;;2.38;2.00;;;24.10;60.90;;;;;;4991607;28;20228;-58
2022/03/23 04:40:01;;;;;;;2.72;2.30;;;24.10;60.90;;;;;;4990706;28;20185;-55
2022/03/23 04:42:32;;;;;;;4.72;2.53;;;24.10;60.80;;;;;;4991783;28;20201;-59
2022/03/23 04:45:02;;;;;;;4.18;2.05;;;24.10;60.80;;;;;;4990715;28;20264;-58
2022/03/23 04:47:33;;;;;;;3.25;2.28;;;24.10;60.80;;;;;;4991385;28;20629;-57
2022/03/23 04:50:05;;;;;;;2.85;2.20;;;24.10;60.80;;;;;;4991087;28;20576;-57
2022/03/23 04:52:35;;;;;;;2.45;2.25;;;24.10;60.80;;;;;;4990759;28;20189;-59
2022/03/23 04:55:09;;;;;;;3.22;2.60;;;24.10;60.80;;;;;;4990781;28;20194;-57
2022/03/23 04:57:40;;;;;;;2.70;2.25;;;24.10;60.80;;;;;;4990406;28;20437;-59
2022/03/23 05:00:14;;;;;;;2.92;2.17;;;24.10;60.80;;;;;;4991103;28;20193;-58
2022/03/23 05:02:45;;;;;;;2.30;2.10;;;24.10;60.80;;;;;;4990865;28;20198;-59
2022/03/23 05:05:17;;;;;;;3.70;2.35;;;24.10;60.80;;;;;;4990500;28;20244;-57
2022/03/23 05:07:48;;;;;;;3.20;2.20;;;24.10;60.70;;;;;;4990549;28;20213;-57
2022/03/23 05:10:20;;;;;;;2.45;2.10;;;24.10;60.70;;;;;;4990206;28;20300;-53
2022/03/23 05:12:51;;;;;;;2.40;2.20;;;24.10;60.60;;;;;;4990458;28;20255;-58
2022/03/23 05:15:22;;;;;;;3.45;2.35;;;24.10;60.50;;;;;;4990989;28;20201;-58
2022/03/23 05:17:52;;;;;;;2.50;2.30;;;24.10;60.50;;;;;;4990240;28;20271;-58
2022/03/23 05:20:23;;;;;;;3.95;2.05;;;24.10;60.40;;;;;;4978722;28;20202;-58
2022/03/23 05:22:54;;;;;;;2.20;1.92;;;24.10;60.40;;;;;;4980146;28;20656;-59
2022/03/23 05:25:27;;;;;;;3.35;2.63;;;24.10;60.40;;;;;;4970729;28;20228;-58
2022/03/23 05:27:58;;;;;;;3.72;2.50;;;24.10;60.30;;;;;;4970472;28;20268;-58
2022/03/23 05:30:28;;;;;;;2.63;2.30;;;24.10;60.30;;;;;;4982120;28;20206;-59
2022/03/23 05:32:59;;;;;;;3.45;2.40;;;24.00;60.30;;;;;;4990346;28;20623;-59
2022/03/23 05:35:29;;;;;;;3.20;2.30;;;24.00;60.30;;;;;;4989474;28;20556;-58
2022/03/23 05:38:00;;;;;;;2.50;2.30;;;24.00;60.20;;;;;;4991341;28;20218;-56
2022/03/23 05:40:32;;;;;;;2.40;2.20;;;24.00;60.20;;;;;;4990790;28;20205;-57
2022/03/23 05:43:03;;;;;;;2.45;2.25;;;24.00;60.20;;;;;;4991432;28;20248;-58
2022/03/23 05:45:35;;;;;;;3.83;2.25;;;24.00;60.20;;;;;;4987012;28;20689;-59
2022/03/23 05:48:06;;;;;;;2.92;2.58;;;24.00;60.30;;;;;;4985062;28;20700;-59
2022/03/23 05:50:36;;;;;;;2.63;2.42;;;24.00;60.40;;;;;;4988320;28;20252;-58
2022/03/23 05:53:08;;;;;;;2.60;2.40;;;24.00;60.30;;;;;;4989698;28;20344;-58
2022/03/23 05:55:40;;;;;;;3.22;2.80;;;24.00;60.40;;;;;;4989009;28;20194;-58
2022/03/23 05:58:11;;;;;;;3.05;2.45;;;24.00;60.30;;;;;;4989707;28;20218;-58
2022/03/23 06:00:41;;;;;;;3.00;2.70;;;24.00;60.40;;;;;;4988808;28;20201;-58
2022/03/23 06:03:12;;;;;;;3.70;2.78;;;24.00;60.40;;;;;;4987318;28;20197;-58
2022/03/23 06:05:43;;;;;;;3.95;2.55;;;23.90;60.30;;;;;;4988379;28;20217;-58
2022/03/23 06:08:13;;;;;;;2.58;2.38;;;24.00;60.40;;;;;;4985630;28;20213;-57
2022/03/23 06:10:46;;;;;;;2.85;2.63;;;24.00;60.40;;;;;;4988053;28;20209;-58
2022/03/23 06:13:17;;;;;;;2.50;2.30;;;24.00;60.30;;;;;;4989567;28;20248;-59
2022/03/23 06:15:47;;;;;;;2.13;2.03;;;23.90;60.20;;;;;;4989445;28;20248;-58
2022/03/23 06:18:18;;;;;;;2.50;2.30;;;23.90;60.20;;;;;;4988946;28;20234;-58
2022/03/23 06:20:48;;;;;;;3.13;2.25;;;23.90;60.20;;;;;;4988767;28;20201;-59
2022/03/23 06:23:19;;;;;;;2.67;2.38;;;23.90;60.20;;;;;;4989568;28;20209;-58
2022/03/23 06:25:51;;;;;;;3.28;2.67;;;23.90;60.20;;;;;;4989592;28;20229;-59
2022/03/23 06:28:23;;;;;;;2.90;2.22;;;23.90;60.30;;;;;;4988869;28;20256;-58
2022/03/23 06:30:53;;;;;;;2.92;2.47;;;23.90;60.40;;;;;;4989677;28;20228;-58
2022/03/23 06:33:24;;;;;;;3.33;2.47;;;23.80;60.20;;;;;;4987856;28;20240;-58
2022/03/23 06:35:55;;;;;;;2.92;2.30;;;23.80;60.30;;;;;;4987437;28;20258;-58
2022/03/23 06:38:25;;;;;;;2.83;2.58;;;23.80;61.10;;;;;;4988192;28;20221;-57
2022/03/23 06:40:58;;;;;;;3.28;2.88;;;23.90;60.40;;;;;;4988338;28;20198;-57
2022/03/23 06:43:28;;;;;;;3.53;2.70;;;23.80;60.30;;;;;;4988795;28;20259;-53
2022/03/23 06:45:59;;;;;;;2.45;2.25;;;23.80;61.10;;;;;;4988085;28;20244;-58
2022/03/23 06:48:30;;;;;;;3.03;2.65;;;23.80;60.30;;;;;;4989013;28;20582;-58
2022/03/23 06:51:00;;;;;;;3.15;2.70;;;23.80;60.30;;;;;;4988783;28;20259;-57
2022/03/23 06:53:31;;;;;;;2.88;2.60;;;23.80;60.30;;;;;;4989037;28;20279;-58
2022/03/23 06:56:03;;;;;;;4.10;2.50;;;23.80;60.30;;;;;;4987188;28;20197;-58
2022/03/23 06:58:34;;;;;;;2.55;2.17;;;23.80;60.30;;;;;;4987828;28;20271;-58
2022/03/23 07:01:05;;;;;;;4.03;2.50;;;23.80;60.30;;;;;;4988279;28;20209;-58
2022/03/23 07:03:35;;;;;;;2.80;2.60;;;23.80;60.30;;;;;;4988371;28;20197;-56
2022/03/23 07:06:06;;;;;;;2.75;2.40;;;23.80;60.30;;;;;;4989477;28;20696;-59
2022/03/23 07:11:24;;;;;;;2.97;2.38;;;23.70;60.30;;;;;;4988836;28;20295;-56
2022/03/23 07:13:55;;;;;;;2.90;2.35;;;23.70;60.20;;;;;;4990060;28;20198;-59
2022/03/23 07:16:25;;;;;;;3.92;2.90;;;23.70;60.20;;;;;;4989089;28;20263;-54
2022/03/23 07:18:56;;;;;;;2.88;2.60;;;23.70;60.30;;;;;;4974482;28;20198;-55
2022/03/23 07:21:27;;;;;;;4.05;2.80;;;23.70;60.20;;;;;;4973022;28;20613;-57
2022/03/23 07:23:57;;;;;;;3.95;2.42;;;23.70;60.30;;;;;;5000336;23;20779;-59
2022/03/23 07:26:30;;;;;;;3.47;2.83;;;23.70;60.30;;;;;;4991141;28;20935;-59
2022/03/23 07:29:01;;;;;;;3.08;2.78;;;23.70;60.30;;;;;;4976474;28;20658;-59
2022/03/23 07:31:31;;;;;;;2.90;2.55;;;23.70;60.30;;;;;;4973589;28;20284;-59
2022/03/23 07:34:02;;;;;;;2.88;2.60;;;23.60;60.20;;;;;;4974342;28;20203;-59
2022/03/23 07:36:33;;;;;;;5.35;3.38;;;23.70;60.30;;;;;;4974139;28;20248;-59
2022/03/23 07:39:04;;;;;;;3.95;2.67;;;23.60;60.20;;;;;;4974148;28;20198;-59
2022/03/23 07:41:36;;;;;;;3.67;2.92;;;23.60;60.20;;;;;;4977478;28;20240;-59
2022/03/23 07:44:07;;;;;;;3.30;2.88;;;23.60;60.20;;;;;;4993645;28;20571;-59
2022/03/23 07:46:38;;;;;;;2.92;2.70;;;23.60;60.20;;;;;;4993335;28;20274;-59
2022/03/23 07:49:08;;;;;;;3.05;2.80;;;23.60;60.20;;;;;;4993466;28;20240;-59
2022/03/23 07:51:39;;;;;;;2.78;2.30;;;23.60;60.20;;;;;;4993246;28;20532;-59
2022/03/23 07:54:10;;;;;;;2.50;2.30;;;23.50;60.10;;;;;;4993294;28;20189;-59
2022/03/23 07:56:43;;;;;;;3.80;2.80;;;23.50;60.10;;;;;;4992988;28;20231;-59
2022/03/23 07:59:13;;;;;;;3.33;3.03;;;23.60;60.20;;;;;;4993792;28;20198;-59
2022/03/23 08:01:44;;;;;;;2.78;2.58;;;23.50;60.20;;;;;;4993568;28;20248;-59
2022/03/23 08:04:14;;;;;;;3.10;2.80;;;23.50;60.20;;;;;;4992995;28;20252;-59
2022/03/23 08:06:45;;;;;;;3.17;2.88;;;23.50;60.20;;;;;;4992893;28;20221;-58
2022/03/23 08:09:15;;;;;;;4.88;3.40;;;23.50;60.20;;;;;;4992803;28;20197;-59
2022/03/23 08:11:48;;;;;;;3.95;3.20;;;23.50;60.50;;;;;;4992430;28;20202;-59
2022/03/23 08:14:18;;;;;;;3.42;2.97;;;23.40;60.30;;;;;;4993016;28;20202;-58
2022/03/23 08:16:49;;;;;;;3.53;3.08;;;23.50;60.30;;;;;;4992869;28;20217;-59
2022/03/23 08:19:19;;;;;;;3.33;3.03;;;23.40;60.30;;;;;;4992830;28;20205;-59
2022/03/23 08:27:33;;;;;;;3.85;3.25;;;23.40;60.30;;;;;;5238837;22;20581;-57
2022/03/23 08:30:09;;;;;;;5.10;3.08;;;23.40;60.30;;;;;;4967176;28;20606;-56
2022/03/23 08:32:40;;;;;;;3.80;3.33;;;23.40;60.30;;;;;;4970832;28;20194;-57
2022/03/23 08:35:11;;;;;;;5.40;3.42;;;23.40;60.30;;;;;;4971510;28;20256;-57
2022/03/23 08:37:42;;;;;;;4.63;2.88;;;23.40;60.30;;;;;;4971031;28;20226;-57
2022/03/23 08:40:13;;;;;;;4.90;3.47;;;23.30;60.20;;;;;;4971897;28;20240;-59
2022/03/23 08:42:45;;;;;;;5.72;3.15;;;23.30;60.30;;;;;;4971415;28;20202;-60
2022/03/23 08:45:17;;;;;;;6.32;3.40;;;23.30;60.30;;;;;;4971520;28;20265;-56
2022/03/23 08:47:49;;;;;;;4.57;2.92;;;23.30;60.30;;;;;;4971517;28;20238;-60
2022/03/23 08:50:19;;;;;;;4.25;3.28;;;23.30;60.30;;;;;;4969449;28;20209;-59
2022/03/23 08:52:52;;;;;;;3.33;3.00;;;23.30;60.30;;;;;;4970634;28;20761;-58
2022/03/23 08:55:24;;;;;;;3.60;3.17;;;23.30;60.30;;;;;;4970956;28;20194;-57
2022/03/23 08:57:56;;;;;;;3.15;2.85;;;23.30;60.30;;;;;;4971393;28;20214;-56
2022/03/23 09:00:27;;;;;;;3.70;3.03;;;23.20;60.20;;;;;;4971572;28;20249;-55
2022/03/23 09:02:58;;;;;;;4.45;3.45;;;23.20;60.20;;;;;;4971046;28;20194;-56
2022/03/23 09:05:28;;;;;;;3.40;3.03;;;23.20;60.20;;;;;;4970506;28;20602;-56
2022/03/23 09:08:00;;;;;;;3.30;3.00;;;23.20;60.30;;;;;;4970540;28;20690;-60
2022/03/23 09:10:31;;;;;;;4.90;3.22;;;23.20;60.30;;;;;;4970814;28;20288;-60
2022/03/23 09:13:04;;;;;;;4.07;3.15;;;23.10;60.20;;;;;;4970192;28;20194;-58
2022/03/23 09:15:34;;;;;;;4.25;3.30;;;23.20;60.30;;;;;;4970554;28;20194;-60
2022/03/23 09:18:06;;;;;;;4.03;3.33;;;23.20;60.30;;;;;;4971001;28;20694;-60
2022/03/23 09:20:37;;;;;;;2.97;2.70;;;23.10;60.30;;;;;;4969967;28;21792;-59
2022/03/23 09:23:08;;;;;;;2.90;2.70;;;23.10;60.30;;;;;;4983271;23;20573;-57
2022/03/23 09:25:40;;;;;;;3.47;3.17;;;23.10;60.30;;;;;;4970059;28;20222;-57
2022/03/23 09:28:12;;;;;;;3.35;3.05;;;23.10;60.30;;;;;;4969652;28;20242;-57
2022/03/23 09:30:43;;;;;;;4.57;3.47;;;23.10;60.30;;;;;;4970096;28;20642;-55
2022/03/23 09:33:13;;;;;;;5.15;3.03;;;23.10;60.40;;;;;;4969973;28;20244;-56
2022/03/23 09:35:44;;;;;;;6.22;3.15;;;23.00;60.30;;;;;;4970527;28;20194;-56
2022/03/23 09:38:13;;;;;;;4.85;3.63;;;23.00;60.30;;;;;;4970171;28;20280;-57
2022/03/23 09:40:50;;;;;;;3.40;3.10;;;23.00;60.30;;;;;;4970184;28;20239;-57
2022/03/23 09:43:25;;;;;;;3.53;3.03;;;23.00;60.30;;;;;;4970511;28;20201;-57
2022/03/23 09:45:56;;;;;;;3.50;3.00;;;23.00;60.40;;;;;;4970645;28;20256;-57
2022/03/23 09:48:31;;;;;;;3.78;3.00;;;23.00;60.40;;;;;;4970201;28;20234;-57
2022/03/23 09:51:02;;;;;;;5.55;3.10;;;23.00;60.40;;;;;;4970860;28;20201;-55
2022/03/23 09:53:35;;;;;;;3.40;3.08;;;23.00;60.40;;;;;;4970001;28;20249;-56
2022/03/23 09:56:06;;;;;;;3.25;2.85;;;23.00;60.50;;;;;;4969492;28;20218;-57
2022/03/23 09:58:39;;;;;;;3.47;3.17;;;22.90;60.30;;;;;;4969912;28;20732;-57
2022/03/23 10:01:33;;;;;;;3.15;2.85;;;22.90;60.40;;;;;;4969713;28;20261;-57
2022/03/23 10:04:33;;;;;;;4.18;3.15;;;22.90;60.40;;;;;;4970102;28;20199;-57
2022/03/23 10:07:15;;;;;;;3.80;2.92;;;22.90;60.30;;;;;;4967856;28;20623;-56
2022/03/23 10:10:16;;;;;;;3.33;3.03;;;22.90;60.40;;;;;;4969389;28;20256;-56
2022/03/23 10:13:22;;;;;;;2.90;2.70;;;22.90;60.40;;;;;;4969278;28;20278;-57
2022/03/23 10:16:24;;;;;;;3.55;2.90;;;22.90;60.40;;;;;;4969550;28;20202;-57
2022/03/23 10:18:59;;;;;;;3.05;2.75;;;22.90;60.40;;;;;;4970086;28;20606;-57
2022/03/23 10:21:30;;;;;;;3.35;3.05;;;22.90;60.30;;;;;;4969666;28;20548;-56
2022/03/23 10:24:35;;;;;;;3.53;2.83;;;22.80;60.30;;;;;;4970561;28;20261;-56
2022/03/23 10:27:11;;;;;;;3.17;2.88;;;22.80;60.40;;;;;;4969983;28;20237;-55
2022/03/23 10:29:48;;;;;;;3.13;2.70;;;22.80;60.30;;;;;;4969609;28;20190;-57
2022/03/23 10:32:20;;;;;;;3.50;3.20;;;22.80;60.40;;;;;;4969726;28;20248;-57
2022/03/23 10:34:54;;;;;;;4.00;3.00;;;22.80;60.40;;;;;;4968780;28;20206;-56
2022/03/23 10:37:30;;;;;;;3.28;2.97;;;22.80;60.40;;;;;;4968676;28;20214;-57
2022/03/23 10:40:01;;;;;;;3.45;2.80;;;22.80;60.40;;;;;;4969625;28;20198;-56
2022/03/23 10:42:34;;;;;;;3.25;2.95;;;22.70;61.30;;;;;;4968738;28;20198;-57
2022/03/23 10:45:13;;;;;;;3.50;3.20;;;22.70;60.50;;;;;;4969795;28;20606;-57
2022/03/23 10:47:44;;;;;;;3.40;3.10;;;22.70;60.50;;;;;;4969616;28;20829;-56
2022/03/23 10:50:21;;;;;;;3.97;3.15;;;22.70;60.50;;;;;;4969061;28;20830;-57
2022/03/23 10:52:58;;;;;;;3.30;3.00;;;22.70;60.60;;;;;;4969763;28;20201;-56
2022/03/23 10:55:29;;;;;;;3.53;2.65;;;22.70;60.60;;;;;;4957160;28;20199;-56
2022/03/23 10:58:25;;;;;;;3.25;2.95;;;22.70;60.50;;;;;;4957012;28;20223;-57
2022/03/23 11:01:00;;;;;;;3.30;3.00;;;22.60;60.50;;;;;;4951939;28;20203;-57
2022/03/23 11:03:47;;;;;;;3.67;2.90;;;22.60;60.50;;;;;;4955742;28;20209;-57
2022/03/23 11:06:28;;;;;;;3.75;2.90;;;22.60;60.50;;;;;;4955603;28;20206;-57
2022/03/23 11:15:46;;;;;;;3.85;2.85;;;22.60;60.50;;;;;;4954947;28;20226;-57
2022/03/23 11:17:52;;;;;;;3.05;2.80;;;22.60;60.50;;;;;;4955322;28;20277;-56
2022/03/23 11:20:24;;;;;;;3.13;2.92;;;22.60;60.50;;;;;;4954986;28;20195;-56
2022/03/23 11:22:56;;;;;;;3.67;2.90;;;22.60;60.60;;;;;;4955867;28;20219;-55
2022/03/23 11:25:27;;;;;;;3.38;3.08;;;22.60;60.70;;;;;;4954402;28;20199;-56
2022/03/23 11:27:58;;;;;;;3.20;2.92;;;22.60;60.70;;;;;;4955054;28;20709;-56
2022/03/23 11:30:30;;;;;;;2.97;2.78;;;22.60;60.70;;;;;;4954826;28;20210;-56
2022/03/23 11:33:01;;;;;;;3.28;2.80;;;22.60;60.70;;;;;;4955144;28;20270;-55
2022/03/23 11:35:32;;;;;;;3.05;2.78;;;22.50;60.60;;;;;;4954523;28;20195;-55
2022/03/23 11:38:07;;;;;;;3.53;3.22;;;22.60;60.80;;;;;;4954526;28;20219;-56
2022/03/23 11:40:38;;;;;;;5.68;2.88;;;22.50;60.70;;;;;;4954194;28;20281;-56
2022/03/23 11:43:09;;;;;;;3.15;2.80;;;22.50;60.70;;;;;;4954732;28;20694;-56
2022/03/23 11:45:40;;;;;;;3.00;2.80;;;22.50;60.80;;;;;;4954608;28;20198;-55
2022/03/23 11:48:23;;;;;;;2.80;2.60;;;22.50;60.70;;;;;;4954540;28;20235;-56
2022/03/23 11:51:22;;;;;;;3.75;3.10;;;22.50;60.70;;;;;;4954763;28;20194;-56
2022/03/23 11:54:05;;;;;;;3.22;2.95;;;22.50;60.70;;;;;;4954530;28;20225;-56
2022/03/23 11:56:53;;;;;;;3.33;3.03;;;22.50;60.60;;;;;;4954389;28;20219;-55
2022/03/23 11:59:25;;;;;;;3.88;3.00;;;22.50;60.70;;;;;;4954726;28;20554;-55
2022/03/23 12:01:56;;;;;;;2.95;2.70;;;22.50;60.70;;;;;;4954584;28;20273;-55
2022/03/23 12:04:28;;;;;;;3.03;2.72;;;22.50;60.70;;;;;;4953033;28;20232;-56
2022/03/23 12:07:04;;;;;;;3.63;3.00;;;22.50;60.70;;;;;;4954486;28;20286;-56
2022/03/23 12:09:40;;;;;;;2.85;2.63;;;22.50;60.60;;;;;;4953983;28;20262;-55
2022/03/23 12:12:16;;;;;;;3.28;2.58;;;22.40;60.60;;;;;;4954251;28;20230;-54
2022/03/23 12:14:46;;;;;;;3.42;2.80;;;22.40;60.60;;;;;;4954019;28;20199;-56
2022/03/23 12:17:21;;;;;;;3.10;2.90;;;22.40;60.60;;;;;;4954020;28;20222;-55
2022/03/23 12:20:09;;;;;;;3.20;2.90;;;22.40;60.60;;;;;;4954005;28;20198;-57
2022/03/23 12:23:22;;;;;;;3.00;2.70;;;22.40;60.60;;;;;;4953867;28;20295;-55
2022/03/23 12:26:06;;;;;;;2.78;2.58;;;22.40;60.60;;;;;;4952878;28;20277;-54
2022/03/23 12:28:45;;;;;;;3.30;3.00;;;22.40;60.60;;;;;;4953776;28;20226;-56
2022/03/23 12:31:17;;;;;;;3.17;2.88;;;22.40;60.60;;;;;;4953950;28;20209;-56
2022/03/23 12:34:18;;;;;;;2.80;2.60;;;22.30;60.60;;;;;;4954111;28;20620;-56
2022/03/23 12:36:59;;;;;;;2.83;2.60;;;22.30;60.60;;;;;;4953797;28;20269;-55
2022/03/23 12:39:34;;;;;;;3.22;2.92;;;22.30;60.60;;;;;;4953432;28;20202;-54
2022/03/23 12:42:31;;;;;;;2.80;2.60;;;22.30;60.60;;;;;;4953468;28;20203;-57
2022/03/23 12:45:19;;;;;;;2.70;2.50;;;22.30;60.60;;;;;;4972007;28;20198;-55
2022/03/23 12:47:57;;;;;;;3.05;2.75;;;22.30;60.60;;;;;;4972734;28;20218;-57
2022/03/23 12:59:19;;;;;;;2.97;2.70;;;22.30;60.60;;;;;;4953639;28;20201;-54
2022/03/23 13:01:55;;;;;;;3.10;2.90;;;22.20;60.50;;;;;;4952953;28;20258;-55
2022/03/23 13:04:52;;;;;;;2.60;2.40;;;22.20;60.50;;;;;;4952797;28;20225;-52
2022/03/23 13:07:44;;;;;;;2.75;2.55;;;22.20;60.50;;;;;;4952836;28;20244;-54
2022/03/23 13:10:18;;;;;;;3.03;2.72;;;22.20;60.50;;;;;;4952567;28;20203;-55
2022/03/23 13:12:48;;;;;;;2.58;2.38;;;22.20;60.50;;;;;;4952096;28;20195;-54
2022/03/23 13:15:22;;;;;;;2.72;2.47;;;22.20;60.50;;;;;;4952727;28;20199;-55
2022/03/23 13:17:53;;;;;;;2.63;2.42;;;22.20;60.60;;;;;;4952809;28;20231;-55
2022/03/23 13:20:23;;;;;;;2.78;2.58;;;22.20;60.60;;;;;;4952415;28;20258;-53
2022/03/23 13:22:55;;;;;;;3.10;2.80;;;22.20;60.60;;;;;;4952581;28;20211;-54
2022/03/23 13:25:25;;;;;;;2.60;2.40;;;22.20;60.60;;;;;;4952625;28;20238;-55
2022/03/23 13:27:56;;;;;;;2.67;2.47;;;22.10;60.60;;;;;;4952865;28;20265;-56
2022/03/23 13:30:29;;;;;;;2.70;2.50;;;22.10;60.60;;;;;;4952859;28;20253;-56
2022/03/23 13:32:59;;;;;;;2.70;2.50;;;22.10;60.60;;;;;;4951938;28;20187;-55
2022/03/23 13:35:30;;;;;;;2.55;2.35;;;22.10;60.50;;;;;;4952447;28;20202;-55
2022/03/23 13:38:02;;;;;;;2.90;2.70;;;22.10;60.60;;;;;;4952430;28;20359;-55
2022/03/23 13:43:19;;;;;;;2.45;2.25;;;22.10;60.50;;;;;;4952316;28;20199;-56
2022/03/23 13:43:25;;;;;;;2.83;2.40;;;22.10;60.50;;;;;;4952863;28;20647;-55
2022/03/23 13:45:58;;;;;;;3.08;2.83;;;22.10;60.50;;;;;;4952749;28;20205;-54
2022/03/23 13:48:31;;;;;;;2.90;2.67;;;22.10;60.50;;;;;;4952787;28;20234;-55
2022/03/23 13:51:03;;;;;;;2.33;2.13;;;22.10;60.50;;;;;;4951878;28;20202;-56
2022/03/23 13:53:33;;;;;;;2.60;2.40;;;22.10;60.60;;;;;;4952601;28;20203;-55
2022/03/23 13:56:05;;;;;;;2.97;2.70;;;22.00;60.50;;;;;;4952287;28;20199;-55